Weather History for Buffalo, WY

Change the Weather History Date:

Tuesday, April 9, 2013

  Actual Average Record
Temperature  
Mean Temperature 15 °F 41 °F  
Max Temperature 18 °F 52 °F 73 °F (2003)
Min Temperature 11 °F 30 °F 11 °F (2013)
Degree Days  
Heating Degree Days 50 24  
Month to date heating degree days 209 226  
Since 1 July heating degree days 6093 6416  
Cooling Degree Days 0 0  
Month to date cooling degree days 0 0  
Year to date cooling degree days 0 0  
Moisture  
Dew Point 9 °F    
Average Humidity 78    
Maximum Humidity 88    
Minimum Humidity 67    
Precipitation  
Precipitation T in 0.03 in 0.16 in (2004)
Month to date precipitation 0.16 0.25  
Year to date precipitation 0.85 1.94  
Sea Level Pressure  
Sea Level Pressure 30.29 in    
Wind  
Wind Speed 15 mph (North)    
Max Wind Speed 31 mph    
Max Gust Speed 35 mph    
Visibility 3 miles    
Events Fog , Snow    
T = Trace of Precipitation, MM = Missing Value Source: NWS Daily Summary

Daily Weather History Graph

Daily Weather History Graph

Search for Another Location

Airport:

Trip Planner

Search our weather history database for the weather conditions in past years. The results will help you decide how hot, cold, wet, or windy it might be!

Date:

Astronomy

Apr. 09, 2013 Rise Set
Actual Time 6:33 AM MDT 7:44 PM MDT
Civil Twilight 6:03 AM MDT 8:14 PM MDT
Nautical Twilight 5:27 AM MDT 8:50 PM MDT
Astronomical Twilight 4:49 AM MDT 9:28 PM MDT
Moon 5:58 AM MDT (4/9) 7:23 PM MDT (4/9)
Length of Visible Light 14h 11m
Length of Day
13h 11m
Waning Crescent, 0% of the Moon is Illuminated
Apr 9
Waning Crescent
Apr 10
New
Apr 18
First Quarter
Apr 25
Full
May 2
Last Quarter

Hourly Weather History & Observations

Time (MDT) Temp. Windchill Dew Point Humidity Pressure Visibility Wind Dir Wind Speed Gust Speed Precip Events Conditions
12:00 AM 15.8 °F -3.7 °F 10.4 °F 79% 30.10 in 1.8 mi North 27.6 mph 34.5 mph 0.00 in Snow Light Snow
12:34 AM 15.8 °F -3.4 °F 10.4 °F 79% 30.11 in 2.0 mi North 26.5 mph 35.7 mph 0.00 in Snow Light Snow
12:49 AM 15.8 °F -3.1 °F 10.4 °F 79% 30.14 in 1.8 mi North 25.3 mph 33.4 mph 0.00 in Snow Light Snow
12:53 AM 15.1 °F -3.3 °F 10.9 °F 84% 30.30 in 1.8 mi North 23.0 mph 33.4 mph 0.00 in Snow Light Snow
1:05 AM 15.8 °F -2.7 °F 10.4 °F 79% 30.12 in 2.5 mi North 24.2 mph 33.4 mph 0.00 in Snow Light Snow
1:23 AM 14.0 °F -5.8 °F 10.4 °F 86% 30.14 in 1.5 mi North 26.5 mph 34.5 mph 0.00 in Snow Light Snow
1:37 AM 14.0 °F -5.1 °F 10.4 °F 86% 30.15 in 1.0 mi North 24.2 mph 34.5 mph 0.00 in Snow Light Snow
1:44 AM 14.0 °F -4.3 °F 10.4 °F 86% 30.15 in 0.8 mi North 21.9 mph 34.5 mph 0.00 in Snow Light Snow
1:53 AM 14.0 °F -4.7 °F 10.0 °F 84% 30.32 in 0.8 mi North 23.0 mph 32.2 mph 0.00 in Snow Light Snow
2:07 AM 14.0 °F -3.4 °F 10.4 °F 86% 30.16 in 0.5 mi North 19.6 mph 33.4 mph 0.00 in Fog , Snow Snow
2:53 AM 12.9 °F -6.1 °F 9.0 °F 84% 30.33 in 0.5 mi North 23.0 mph 33.4 mph 0.00 in Fog , Snow Light Snow
3:06 AM 12.2 °F -7.1 °F 8.6 °F 85% 30.16 in 0.8 mi North 23.0 mph 33.4 mph 0.00 in Snow Light Snow
3:15 AM 12.2 °F -6.7 °F 8.6 °F 85% 30.16 in 1.0 mi North 21.9 mph 33.4 mph 0.00 in Snow Light Snow
3:22 AM 12.2 °F -7.5 °F 8.6 °F 85% 30.16 in 1.0 mi North 24.2 mph 33.4 mph 0.00 in Snow Light Snow
3:41 AM 12.2 °F -7.1 °F 8.6 °F 85% 30.16 in 1.2 mi North 23.0 mph 34.5 mph 0.00 in Snow Light Snow
3:53 AM 12.9 °F -7.3 °F 9.0 °F 84% 30.35 in 1.8 mi North 26.5 mph 33.4 mph 0.00 in Snow Light Snow
4:07 AM 12.2 °F -8.9 °F 8.6 °F 85% 30.18 in 2.0 mi North 28.8 mph 34.5 mph 0.00 in Snow Light Snow
4:16 AM 12.2 °F -6.7 °F 8.6 °F 85% 30.19 in 1.5 mi North 21.9 mph 34.5 mph 0.00 in Snow Light Snow
4:53 AM 12.0 °F -6.0 °F 8.1 °F 84% 30.39 in 1.5 mi North 19.6 mph 33.4 mph 0.00 in Snow Light Snow
5:04 AM 12.2 °F -6.7 °F 8.6 °F 85% 30.20 in 1.2 mi North 21.9 mph 29.9 mph 0.00 in Snow Light Snow
5:30 AM 12.2 °F -6.3 °F 8.6 °F 85% 30.21 in 2.0 mi North 20.7 mph 33.4 mph 0.00 in Snow Light Snow
5:38 AM 12.2 °F -6.7 °F 8.6 °F 85% 30.21 in 1.8 mi North 21.9 mph 31.1 mph 0.00 in Snow Light Snow
5:53 AM 12.0 °F -6.0 °F 7.0 °F 80% 30.40 in 3.0 mi North 19.6 mph 29.9 mph 0.00 in Snow Light Snow
6:51 AM 10.4 °F -8.2 °F 6.8 °F 85% 30.22 in 2.0 mi North 19.6 mph 32.2 mph 0.00 in Snow Light Snow
6:53 AM 10.9 °F -7.5 °F 7.0 °F 84% 30.42 in 1.8 mi North 19.6 mph 32.2 mph 0.00 in Snow Light Snow
7:07 AM 10.4 °F -7.7 °F 6.8 °F 85% 30.24 in 1.0 mi North 18.4 mph 21.9 mph 0.00 in Snow Light Snow
7:21 AM 10.4 °F -8.2 °F 6.8 °F 85% 30.24 in 0.8 mi North 19.6 mph - 0.00 in Snow Light Snow
7:35 AM 10.4 °F -8.6 °F 6.8 °F 85% 30.23 in 1.0 mi North 20.7 mph - 0.00 in Snow Light Snow
7:53 AM 10.9 °F -7.5 °F 7.0 °F 84% 30.43 in 1.0 mi North 19.6 mph - 0.00 in Snow Light Snow
8:24 AM 10.4 °F -7.7 °F 6.8 °F 85% 30.24 in 1.8 mi North 18.4 mph 23.0 mph 0.00 in Snow Light Snow
8:32 AM 12.2 °F -5.8 °F 6.8 °F 79% 30.24 in 3.0 mi North 19.6 mph 23.0 mph 0.00 in Snow Light Snow
8:42 AM 12.2 °F -5.3 °F 6.8 °F 79% 30.25 in 5.0 mi North 18.4 mph 24.2 mph 0.00 in   Haze
8:53 AM 12.0 °F -4.0 °F 7.0 °F 80% 30.45 in 5.0 mi North 15.0 mph 24.2 mph 0.00 in   Haze
9:11 AM 12.2 °F -5.8 °F 6.8 °F 79% 30.25 in 4.0 mi North 19.6 mph - 0.00 in Snow Light Snow
9:16 AM 12.2 °F -4.3 °F 6.8 °F 79% 30.25 in 2.0 mi North 16.1 mph - 0.00 in Snow Light Snow
9:25 AM 12.2 °F -4.8 °F 6.8 °F 79% 30.25 in 1.2 mi North 17.3 mph 24.2 mph 0.00 in Snow Light Snow
9:32 AM 12.2 °F -3.7 °F 6.8 °F 79% 30.26 in 0.8 mi North 15.0 mph 23.0 mph 0.00 in Snow Light Snow
9:53 AM 12.9 °F -2.8 °F 7.0 °F 77% 30.46 in 0.8 mi North 15.0 mph 21.9 mph 0.00 in Snow Light Snow
10:21 AM 12.2 °F -5.8 °F 6.8 °F 79% 30.27 in 1.0 mi North 19.6 mph 24.2 mph 0.00 in Snow Light Snow
10:31 AM 14.0 °F -1.4 °F 8.6 °F 79% 30.27 in 1.2 mi North 15.0 mph 24.2 mph 0.00 in Snow Light Snow
10:53 AM 14.0 °F -0.8 °F 8.1 °F 77% 30.48 in 1.2 mi North 13.8 mph 23.0 mph 0.00 in Snow Light Snow
11:06 AM 14.0 °F -3.4 °F 8.6 °F 79% 30.28 in 2.0 mi North 19.6 mph 23.0 mph 0.00 in Snow Light Snow
11:27 AM 14.0 °F -3.4 °F 8.6 °F 79% 30.28 in 2.0 mi North 19.6 mph 23.0 mph 0.00 in Snow Light Snow
11:37 AM 14.0 °F -2.0 °F 8.6 °F 79% 30.28 in 1.5 mi North 16.1 mph 23.0 mph 0.00 in Snow Light Snow
11:53 AM 15.1 °F -0.6 °F 9.0 °F 77% 30.47 in 1.8 mi NNW 16.1 mph 24.2 mph 0.00 in Snow Light Snow
12:05 PM 15.8 °F -1.5 °F 8.6 °F 73% 30.27 in 2.0 mi NNW 20.7 mph 25.3 mph 0.00 in Snow Light Snow
12:27 PM 15.8 °F -0.6 °F 8.6 °F 73% 30.26 in 1.8 mi North 18.4 mph - 0.00 in Snow Light Snow
12:34 PM 15.8 °F -1.1 °F 8.6 °F 73% 30.26 in 2.0 mi North 19.6 mph - 0.00 in Snow Light Snow
12:46 PM 15.8 °F -1.1 °F 8.6 °F 73% 30.25 in 2.0 mi North 19.6 mph - 0.00 in Snow Light Snow
12:53 PM 15.1 °F -2.0 °F 8.1 °F 74% 30.44 in 2.0 mi North 19.6 mph - 0.00 in Snow Light Snow
1:05 PM 15.8 °F -1.5 °F 8.6 °F 73% 30.25 in 4.0 mi North 20.7 mph - 0.00 in Snow Light Snow
1:53 PM 16.0 °F -1.3 °F 9.0 °F 74% 30.43 in 2.5 mi North 20.7 mph 25.3 mph 0.00 in Snow Light Snow
2:53 PM 17.1 °F 0.1 °F 9.0 °F 71% 30.42 in 10.0 mi North 20.7 mph - 0.00 in   Overcast
3:53 PM 18.0 °F 0.6 °F 8.1 °F 65% 30.41 in 10.0 mi North 23.0 mph 31.1 mph N/A   Overcast
4:53 PM 17.1 °F 0.6 °F 9.0 °F 71% 30.43 in 10.0 mi North 19.6 mph 28.8 mph N/A   Overcast
5:53 PM 18.0 °F 2.6 °F 10.0 °F 71% 30.45 in 4.0 mi North 17.3 mph - 0.00 in Snow Light Snow
6:44 PM 17.6 °F 1.3 °F 10.4 °F 73% 30.26 in 2.0 mi North 19.6 mph 24.2 mph 0.00 in Snow Light Snow
6:53 PM 17.1 °F 1.5 °F 10.0 °F 74% 30.45 in 2.0 mi North 17.3 mph 24.2 mph 0.00 in Snow Light Snow
7:27 PM 15.8 °F -0.6 °F 10.4 °F 79% 30.25 in 3.0 mi North 18.4 mph 21.9 mph 0.00 in Snow Light Snow
7:53 PM 16.0 °F 2.9 °F 10.0 °F 77% 30.45 in 8.0 mi North 11.5 mph 21.9 mph 0.00 in   Overcast
8:53 PM 15.1 °F 5.2 °F 10.0 °F 80% 30.46 in 9.0 mi NW 6.9 mph - 0.00 in   Overcast
9:53 PM 15.1 °F - 10.0 °F 80% 30.46 in 10.0 mi Calm Calm - N/A   Overcast
10:53 PM 15.1 °F - 10.0 °F 80% 30.43 in 10.0 mi Calm Calm - N/A   Overcast
11:53 PM 16.0 °F - 9.0 °F 74% 30.40 in 4.0 mi Calm Calm - 0.00 in   Haze